createdAt,value
2023-05-25T00:01:54.605Z,89.24
2023-05-25T00:04:27.029Z,89.90
2023-05-25T00:06:54.938Z,90.03
2023-05-25T00:09:25.732Z,90.51
2023-05-25T00:11:53.490Z,90.36
2023-05-25T00:14:21.293Z,90.56
2023-05-25T00:16:49.216Z,90.66
2023-05-25T00:19:18.561Z,90.85
2023-05-25T00:21:48.546Z,90.94
2023-05-25T00:24:16.274Z,91.08
2023-05-25T00:26:45.354Z,91.11
2023-05-25T00:29:14.988Z,91.24
2023-05-25T00:31:42.667Z,91.03
2023-05-25T00:34:10.383Z,91.14
2023-05-25T00:36:38.174Z,91.34
2023-05-25T00:39:05.875Z,91.58
2023-05-25T00:41:34.861Z,91.52
2023-05-25T00:44:04.232Z,91.54
2023-05-25T00:46:34.278Z,91.68
2023-05-25T00:49:03.158Z,92.08
2023-05-25T00:51:32.980Z,92.42
2023-05-25T00:54:00.734Z,92.69
2023-05-25T00:56:33.520Z,92.98
2023-05-25T00:59:07.862Z,92.94
2023-05-25T01:01:40.309Z,93.05
2023-05-25T01:04:10.582Z,93.37
2023-05-25T01:06:40.653Z,93.46
2023-05-25T01:09:12.202Z,93.73
2023-05-25T01:11:43.436Z,93.86
2023-05-25T01:14:13.186Z,94.24
2023-05-25T01:16:42.483Z,94.50
2023-05-25T01:19:10.832Z,94.52
2023-05-25T01:21:45.875Z,95.15
2023-05-25T01:24:22.474Z,94.72
2023-05-25T01:26:53.636Z,95.54
2023-05-25T01:29:24.631Z,94.97
2023-05-25T01:31:54.542Z,94.88
2023-05-25T01:34:23.218Z,95.04
2023-05-25T01:36:53.063Z,94.98
2023-05-25T01:39:22.833Z,94.76
2023-05-25T01:41:50.755Z,95.25
2023-05-25T01:44:18.987Z,94.89
2023-05-25T01:46:51.049Z,94.84
2023-05-25T01:49:27.725Z,94.80
2023-05-25T01:52:05.340Z,95.05
2023-05-25T01:54:38.804Z,95.37
2023-05-25T01:57:11.191Z,95.19
2023-05-25T01:59:39.641Z,95.68
2023-05-25T02:02:08.705Z,95.71
2023-05-25T02:04:36.963Z,95.65
2023-05-25T02:07:06.814Z,95.56
2023-05-25T02:09:34.547Z,95.54
2023-05-25T02:12:02.409Z,95.73
2023-05-25T02:14:30.122Z,95.98
2023-05-25T02:17:01.881Z,95.76
2023-05-25T02:19:29.653Z,96.04
2023-05-25T02:21:57.849Z,96.07
2023-05-25T02:24:27.923Z,96.08
2023-05-25T02:26:55.656Z,96.17
2023-05-25T02:29:23.495Z,96.15
2023-05-25T02:31:51.225Z,96.14
2023-05-25T02:34:19.616Z,96.04
2023-05-25T02:36:47.338Z,96.53
2023-05-25T02:39:15.162Z,96.49
2023-05-25T02:41:45.196Z,96.88
2023-05-25T02:44:13.065Z,96.68
2023-05-25T02:46:40.806Z,96.69
2023-05-25T02:49:08.557Z,96.65
2023-05-25T02:51:37.327Z,96.84
2023-05-25T02:54:05.688Z,97.05
2023-05-25T02:56:33.808Z,96.57
2023-05-25T02:59:04.445Z,96.72
2023-05-25T03:01:35.105Z,96.44
2023-05-25T03:04:03.231Z,96.74
2023-05-25T03:06:36.643Z,96.76
2023-05-25T03:09:17.916Z,97.12
2023-05-25T03:11:48.002Z,96.81
2023-05-25T03:14:19.480Z,97.09
2023-05-25T03:16:54.611Z,96.86
2023-05-25T03:19:24.195Z,97.16
2023-05-25T03:21:51.864Z,96.81
2023-05-25T03:24:20.260Z,96.73
2023-05-25T03:26:48.000Z,96.63
2023-05-25T03:29:16.651Z,96.70
2023-05-25T03:31:45.910Z,96.67
2023-05-25T03:34:13.816Z,96.50
2023-05-25T03:36:45.954Z,96.22
2023-05-25T03:39:14.921Z,96.33
2023-05-25T03:41:44.138Z,96.74
2023-05-25T03:44:11.978Z,96.63
2023-05-25T03:46:40.985Z,96.46
2023-05-25T03:49:13.667Z,96.50
2023-05-25T03:51:41.657Z,96.65
2023-05-25T03:54:09.747Z,96.75
2023-05-25T03:56:37.608Z,96.65
2023-05-25T03:59:06.489Z,96.95
2023-05-25T04:01:38.087Z,97.07
2023-05-25T04:04:06.163Z,97.66
2023-05-25T04:06:37.139Z,97.59
2023-05-25T04:09:05.613Z,97.53
2023-05-25T04:11:34.431Z,97.73
2023-05-25T04:14:02.201Z,97.51
2023-05-25T04:16:32.771Z,97.35
2023-05-25T04:19:00.845Z,97.13
2023-05-25T04:21:28.913Z,96.81
2023-05-25T04:23:57.932Z,96.43
2023-05-25T04:26:27.494Z,95.61
2023-05-25T04:28:58.883Z,95.25
2023-05-25T04:31:35.446Z,94.68
2023-05-25T04:34:15.550Z,93.92
2023-05-25T04:36:50.943Z,92.86
2023-05-25T04:39:20.383Z,91.74
2023-05-25T04:41:53.426Z,91.34
2023-05-25T04:44:21.371Z,90.50
2023-05-25T04:46:52.473Z,90.25
2023-05-25T04:49:26.735Z,90.11
2023-05-25T04:51:54.714Z,89.21
2023-05-25T04:54:24.269Z,88.50
2023-05-25T04:56:52.127Z,87.60
2023-05-25T04:59:19.931Z,87.07
2023-05-25T05:01:48.337Z,86.51
2023-05-25T05:04:18.231Z,86.42
2023-05-25T05:06:46.358Z,86.01
2023-05-25T05:09:24.770Z,85.18
2023-05-25T05:11:53.365Z,85.00
2023-05-25T05:14:21.175Z,85.19
2023-05-25T05:16:48.963Z,84.77
2023-05-25T05:19:16.944Z,84.39
2023-05-25T05:21:45.048Z,84.22
2023-05-25T05:24:13.432Z,84.13
2023-05-25T05:26:56.183Z,83.65
2023-05-25T05:29:28.599Z,83.40
2023-05-25T05:31:56.834Z,82.00
2023-05-25T05:34:24.782Z,81.76
2023-05-25T05:36:57.336Z,80.83
2023-05-25T05:39:26.028Z,80.22
2023-05-25T05:41:55.718Z,80.03
2023-05-25T05:44:26.776Z,79.55
2023-05-25T05:47:00.025Z,79.01
2023-05-25T05:49:29.632Z,79.21
2023-05-25T05:51:58.729Z,78.41
2023-05-25T05:54:27.773Z,77.26
2023-05-25T05:56:57.370Z,76.93
2023-05-25T05:59:25.349Z,76.79
2023-05-25T06:01:53.420Z,75.71
2023-05-25T06:04:25.178Z,76.08
2023-05-25T06:09:20.830Z,75.91
2023-05-25T06:11:48.893Z,75.44
2023-05-25T06:14:17.984Z,75.24
2023-05-25T06:16:45.847Z,74.77
2023-05-25T06:19:14.411Z,74.78
2023-05-25T06:21:42.675Z,73.75
2023-05-25T06:24:10.643Z,73.62
2023-05-25T06:26:38.326Z,73.48
2023-05-25T06:29:06.083Z,73.42
2023-05-25T06:31:35.216Z,73.60
2023-05-25T06:34:03.274Z,73.09
2023-05-25T06:36:32.213Z,72.78
2023-05-25T06:39:00.608Z,72.70
2023-05-25T06:41:28.537Z,72.88
2023-05-25T06:43:57.173Z,72.88
2023-05-25T06:46:31.936Z,72.54
2023-05-25T06:49:02.034Z,72.31
2023-05-25T06:51:30.113Z,72.51
2023-05-25T06:53:57.921Z,72.62
2023-05-25T06:56:26.256Z,72.64
2023-05-25T06:58:53.952Z,72.37
2023-05-25T07:01:21.691Z,72.46
2023-05-25T07:03:49.563Z,72.17
2023-05-25T07:06:18.612Z,71.67
2023-05-25T07:08:46.329Z,71.16
2023-05-25T07:11:14.268Z,71.00
2023-05-25T07:13:42.152Z,71.19
2023-05-25T07:16:09.938Z,70.34
2023-05-25T07:18:40.629Z,70.53
2023-05-25T07:21:09.901Z,69.57
2023-05-25T07:23:40.439Z,69.49
2023-05-25T07:26:08.183Z,68.88
2023-05-25T07:28:35.947Z,68.90
2023-05-25T07:31:03.773Z,68.21
2023-05-25T07:33:31.493Z,68.33
2023-05-25T07:35:59.414Z,68.33
2023-05-25T07:38:27.168Z,67.15
2023-05-25T07:40:56.344Z,67.18
2023-05-25T07:43:24.746Z,65.20
2023-05-25T07:45:52.502Z,66.15
2023-05-25T07:48:20.258Z,66.31
2023-05-25T07:50:48.000Z,65.44
2023-05-25T07:53:15.879Z,65.47
2023-05-25T07:55:43.870Z,64.85
2023-05-25T07:58:13.148Z,63.99
2023-05-25T08:00:40.941Z,63.42
2023-05-25T08:03:09.091Z,63.73
2023-05-25T08:05:36.927Z,63.12
2023-05-25T08:08:04.680Z,62.44
2023-05-25T08:10:32.583Z,62.03
2023-05-25T08:13:00.357Z,61.58
2023-05-25T08:15:29.483Z,61.00
2023-05-25T08:17:57.410Z,61.51
2023-05-25T08:20:25.945Z,60.64
2023-05-25T08:22:54.429Z,59.82
2023-05-25T08:25:22.310Z,59.14
2023-05-25T08:27:50.029Z,58.67
2023-05-25T08:30:17.778Z,58.24
2023-05-25T08:32:47.165Z,58.10
2023-05-25T08:35:15.351Z,57.72
2023-05-25T08:37:43.473Z,57.45
2023-05-25T08:40:15.788Z,57.34
2023-05-25T08:42:44.462Z,57.35
2023-05-25T08:45:26.464Z,57.10
2023-05-25T08:48:05.265Z,57.18
2023-05-25T08:50:34.674Z,57.65
2023-05-25T08:53:06.241Z,56.91
2023-05-25T08:55:36.658Z,58.00
2023-05-25T08:58:11.165Z,57.54
2023-05-25T09:00:49.644Z,56.38
2023-05-25T09:03:19.002Z,55.56
2023-05-25T09:05:47.389Z,55.64
2023-05-25T09:08:15.705Z,55.62
2023-05-25T09:10:43.880Z,56.13
2023-05-25T09:13:20.284Z,57.05
2023-05-25T09:15:50.638Z,55.42
2023-05-25T09:18:19.952Z,56.26
2023-05-25T09:20:48.113Z,56.16
2023-05-25T09:23:16.313Z,56.12
2023-05-25T09:25:45.302Z,55.27
2023-05-25T09:28:26.309Z,55.26
2023-05-25T09:30:55.583Z,54.70
2023-05-25T09:33:24.777Z,53.94
2023-05-25T09:35:52.653Z,54.11
2023-05-25T09:38:20.782Z,53.95
2023-05-25T09:40:48.894Z,54.50
2023-05-25T09:43:28.367Z,53.84
2023-05-25T09:46:00.832Z,53.75
2023-05-25T09:48:30.331Z,53.53
2023-05-25T09:50:58.491Z,54.76
2023-05-25T09:53:27.609Z,54.27
2023-05-25T09:55:55.352Z,53.54
2023-05-25T09:58:24.833Z,52.80
2023-05-25T10:00:55.170Z,53.53
2023-05-25T10:03:23.015Z,52.37
2023-05-25T10:05:53.129Z,51.59
2023-05-25T10:08:23.359Z,51.74
2023-05-25T10:10:51.792Z,51.40
2023-05-25T10:13:22.598Z,50.45
2023-05-25T10:15:55.021Z,50.07
2023-05-25T10:18:26.629Z,48.61
2023-05-25T10:21:02.941Z,48.84
2023-05-25T10:23:36.562Z,50.48
2023-05-25T10:26:08.772Z,49.61
2023-05-25T10:28:38.152Z,48.53
2023-05-25T10:31:06.376Z,49.13
2023-05-25T10:33:34.714Z,49.46
2023-05-25T10:36:10.542Z,50.05
2023-05-25T10:38:40.784Z,50.73
2023-05-25T10:41:10.787Z,50.38
2023-05-25T10:43:39.583Z,50.08
2023-05-25T10:46:07.932Z,49.96
2023-05-25T10:48:39.333Z,48.66
2023-05-25T10:51:11.077Z,48.66
2023-05-25T10:53:39.768Z,48.30
2023-05-25T10:56:10.011Z,49.20
2023-05-25T10:58:43.296Z,48.75
2023-05-25T11:01:12.620Z,48.76
2023-05-25T11:03:56.530Z,48.25
2023-05-25T11:07:05.414Z,47.83
2023-05-25T11:09:33.670Z,49.28
2023-05-25T11:12:06.474Z,48.34
2023-05-25T11:14:37.724Z,49.58
2023-05-25T11:17:07.903Z,49.42
2023-05-25T11:19:43.884Z,50.56
2023-05-25T11:22:17.853Z,50.42
2023-05-25T11:24:46.055Z,50.53
2023-05-25T11:27:14.049Z,50.37
2023-05-25T11:29:42.333Z,49.81
2023-05-25T11:32:15.182Z,49.38
2023-05-25T11:34:46.750Z,49.22
2023-05-25T11:37:21.022Z,49.20
2023-05-25T11:39:49.666Z,50.02
2023-05-25T11:42:19.982Z,50.84
2023-05-25T11:44:47.682Z,52.04
2023-05-25T11:47:18.966Z,52.63
2023-05-25T11:49:49.741Z,52.07
2023-05-25T11:52:22.160Z,50.92
2023-05-25T11:54:50.043Z,50.43
2023-05-25T11:57:18.948Z,50.43
2023-05-25T11:59:50.080Z,49.82
2023-05-25T12:02:18.525Z,49.74
2023-05-25T12:04:55.041Z,48.95
2023-05-25T12:07:25.264Z,48.02
2023-05-25T12:09:53.213Z,49.60
2023-05-25T12:12:21.216Z,50.33
2023-05-25T12:14:49.641Z,49.69
2023-05-25T12:17:18.367Z,49.65
2023-05-25T12:19:46.587Z,48.68
2023-05-25T12:22:14.918Z,48.20
2023-05-25T12:24:44.077Z,47.28
2023-05-25T12:27:18.526Z,46.55
2023-05-25T12:29:49.813Z,44.81
2023-05-25T12:32:17.897Z,45.23
2023-05-25T12:34:46.111Z,46.95
2023-05-25T12:37:21.053Z,46.26
2023-05-25T12:39:51.200Z,46.64
2023-05-25T12:42:19.297Z,47.23
2023-05-25T12:44:47.457Z,47.53
2023-05-25T12:47:16.521Z,47.15
2023-05-25T12:49:45.396Z,46.85
2023-05-25T12:52:32.812Z,46.05
2023-05-25T12:55:19.828Z,45.68
2023-05-25T12:57:52.302Z,46.48
2023-05-25T13:00:21.982Z,45.78
2023-05-25T13:02:50.668Z,46.42
2023-05-25T13:05:20.388Z,46.60
2023-05-25T13:07:48.342Z,46.12
2023-05-25T13:10:18.369Z,46.23
2023-05-25T13:12:46.819Z,45.65
2023-05-25T13:15:16.094Z,46.14
2023-05-25T13:17:44.651Z,46.13
2023-05-25T13:20:16.242Z,46.20
2023-05-25T13:22:45.425Z,46.23
2023-05-25T13:25:14.704Z,46.30
2023-05-25T13:27:46.318Z,45.78
2023-05-25T13:30:14.852Z,45.62
2023-05-25T13:32:43.716Z,46.08
2023-05-25T13:35:18.364Z,46.02
2023-05-25T13:37:46.829Z,45.87
2023-05-25T13:40:14.707Z,45.65
2023-05-25T13:42:42.525Z,45.35
2023-05-25T13:45:12.235Z,44.87
2023-05-25T13:47:40.036Z,44.62
2023-05-25T13:50:08.495Z,45.11
2023-05-25T13:52:37.012Z,45.89
2023-05-25T13:55:05.430Z,45.72
2023-05-25T13:57:33.132Z,45.69
2023-05-25T14:00:00.863Z,46.49
2023-05-25T14:02:32.159Z,45.82
2023-05-25T14:05:00.036Z,45.78
2023-05-25T14:07:27.736Z,45.64
2023-05-25T14:09:56.648Z,45.17
2023-05-25T14:12:25.199Z,45.05
2023-05-25T14:14:53.061Z,43.99
2023-05-25T14:17:20.817Z,44.75
2023-05-25T14:19:49.933Z,44.73
2023-05-25T14:22:17.694Z,44.77
2023-05-25T14:24:45.531Z,44.78
2023-05-25T14:27:13.264Z,45.09
2023-05-25T14:29:41.176Z,45.13
2023-05-25T14:32:08.948Z,45.37
2023-05-25T14:34:36.672Z,45.63
2023-05-25T14:37:05.905Z,45.94
2023-05-25T14:39:34.216Z,46.22
2023-05-25T14:42:02.424Z,46.97
2023-05-25T14:44:30.311Z,46.88
2023-05-25T14:46:58.082Z,46.38
2023-05-25T14:49:27.390Z,46.01
2023-05-25T14:51:55.491Z,45.92
2023-05-25T14:54:24.597Z,46.17
2023-05-25T14:56:52.348Z,45.98
2023-05-25T14:59:20.109Z,47.09
2023-05-25T15:01:47.906Z,47.46
2023-05-25T15:04:15.767Z,46.57
2023-05-25T15:06:43.628Z,45.71
2023-05-25T15:09:13.212Z,45.66
2023-05-25T15:11:42.280Z,45.00
2023-05-25T15:14:10.024Z,45.23
2023-05-25T15:16:37.872Z,45.58
2023-05-25T15:19:05.644Z,45.38
2023-05-25T15:21:33.387Z,45.26
2023-05-25T15:24:01.463Z,45.79
2023-05-25T15:26:29.226Z,45.80
2023-05-25T15:28:58.345Z,45.54
2023-05-25T15:31:26.199Z,46.18
2023-05-25T15:33:58.763Z,46.57
2023-05-25T15:36:27.018Z,46.94
2023-05-25T15:38:54.710Z,47.75
2023-05-25T15:41:23.282Z,47.83
2023-05-25T15:43:54.410Z,48.04
2023-05-25T15:46:23.746Z,48.28
2023-05-25T15:48:51.561Z,48.58
2023-05-25T15:51:19.355Z,48.88
2023-05-25T15:53:47.574Z,49.10
2023-05-25T15:56:15.440Z,49.00
2023-05-25T15:58:46.978Z,48.99
2023-05-25T16:01:14.797Z,48.88
2023-05-25T16:03:44.695Z,49.17
2023-05-25T16:06:12.772Z,49.40
2023-05-25T16:08:40.525Z,48.92
2023-05-25T16:11:08.503Z,49.03
2023-05-25T16:13:36.438Z,48.82
2023-05-25T16:16:04.255Z,49.47
2023-05-25T16:18:32.111Z,49.66
2023-05-25T16:21:04.944Z,50.10
2023-05-25T16:23:32.714Z,49.70
2023-05-25T16:26:00.633Z,49.77
2023-05-25T16:28:28.457Z,50.57
2023-05-25T16:30:56.224Z,50.59
2023-05-25T16:33:24.030Z,50.73
2023-05-25T16:35:53.698Z,51.02
2023-05-25T16:41:29.498Z,51.53
2023-05-25T16:43:57.183Z,51.58
2023-05-25T16:46:25.703Z,51.89
2023-05-25T16:48:53.409Z,52.20
2023-05-25T16:51:21.110Z,52.31
2023-05-25T16:53:52.454Z,50.94
2023-05-25T16:56:21.777Z,50.90
2023-05-25T16:58:49.501Z,50.54
2023-05-25T17:01:17.269Z,50.83
2023-05-25T17:03:45.088Z,50.84
2023-05-25T17:06:12.913Z,51.53
2023-05-25T17:08:40.630Z,51.36
2023-05-25T17:11:09.914Z,51.62
2023-05-25T17:13:37.964Z,51.48
2023-05-25T17:16:06.095Z,51.59
2023-05-25T17:18:33.869Z,51.74
2023-05-25T17:21:01.960Z,51.95
2023-05-25T17:23:29.687Z,51.40
2023-05-25T17:25:57.353Z,51.11
2023-05-25T17:28:27.606Z,51.55
2023-05-25T17:30:56.718Z,51.79
2023-05-25T17:33:24.515Z,51.78
2023-05-25T17:35:52.949Z,52.07
2023-05-25T17:38:20.798Z,52.23
2023-05-25T17:40:50.148Z,52.32
2023-05-25T17:43:18.050Z,52.44
2023-05-25T17:45:47.633Z,52.70
2023-05-25T17:48:15.749Z,51.75
2023-05-25T17:50:43.497Z,52.02
2023-05-25T17:53:11.597Z,51.65
2023-05-25T17:55:39.390Z,51.37
2023-05-25T17:58:07.233Z,51.41
2023-05-25T18:00:35.178Z,51.34
2023-05-25T18:03:04.460Z,51.09
2023-05-25T18:05:32.248Z,50.79
2023-05-25T18:07:59.953Z,50.11
2023-05-25T18:10:27.639Z,50.57
2023-05-25T18:12:55.603Z,51.39
2023-05-25T18:15:23.370Z,51.58
2023-05-25T18:17:51.116Z,51.74
2023-05-25T18:20:20.390Z,52.07
2023-05-25T18:22:48.115Z,52.44
2023-05-25T18:25:15.826Z,52.75
2023-05-25T18:27:43.580Z,53.01
2023-05-25T18:30:12.171Z,53.42
2023-05-25T18:32:39.911Z,53.95
2023-05-25T18:35:08.583Z,54.48
2023-05-25T18:37:37.651Z,55.01
2023-05-25T18:40:06.210Z,55.15
2023-05-25T18:42:34.896Z,55.44
2023-05-25T18:45:02.713Z,56.02
2023-05-25T18:47:30.446Z,56.62
2023-05-25T18:49:58.437Z,56.84
2023-05-25T18:52:26.154Z,57.59
2023-05-25T18:54:55.176Z,57.93
2023-05-25T18:57:22.868Z,58.18
2023-05-25T18:59:52.209Z,59.33
2023-05-25T19:02:20.111Z,59.16
2023-05-25T19:04:47.969Z,59.61
2023-05-25T19:07:15.768Z,59.89
2023-05-25T19:09:43.474Z,60.52
2023-05-25T19:12:12.744Z,60.76
2023-05-25T19:14:40.685Z,61.15
2023-05-25T19:17:08.468Z,62.22
2023-05-25T19:19:36.260Z,62.61
2023-05-25T19:22:03.928Z,62.76
2023-05-25T19:24:31.604Z,63.56
2023-05-25T19:26:59.321Z,62.94
2023-05-25T19:29:28.426Z,63.59
2023-05-25T19:31:56.189Z,64.96
2023-05-25T19:34:23.900Z,64.22
2023-05-25T19:36:59.627Z,64.51
2023-05-25T19:39:31.764Z,64.91
2023-05-25T19:41:59.862Z,65.46
2023-05-25T19:44:28.991Z,66.58
2023-05-25T19:46:56.728Z,65.97
2023-05-25T19:49:24.424Z,66.16
2023-05-25T19:51:52.234Z,66.53
2023-05-25T19:54:19.929Z,67.23
2023-05-25T19:56:47.703Z,67.29
2023-05-25T19:59:15.392Z,67.50
2023-05-25T20:01:44.582Z,67.79
2023-05-25T20:04:12.426Z,67.36
2023-05-25T20:06:40.228Z,67.63
2023-05-25T20:09:11.387Z,68.24
2023-05-25T20:11:39.278Z,67.94
2023-05-25T20:14:08.544Z,68.78
2023-05-25T20:16:36.451Z,68.61
2023-05-25T20:19:07.405Z,69.45
2023-05-25T20:21:36.496Z,69.06
2023-05-25T20:24:04.269Z,69.87
2023-05-25T20:26:32.001Z,70.39
2023-05-25T20:28:59.704Z,70.03
2023-05-25T20:31:27.433Z,70.23
2023-05-25T20:33:55.379Z,71.10
2023-05-25T20:36:24.418Z,72.48
2023-05-25T20:38:52.133Z,71.71
2023-05-25T20:41:19.840Z,71.08
2023-05-25T20:43:47.585Z,71.35
2023-05-25T20:46:15.388Z,71.74
2023-05-25T20:48:43.232Z,72.41
2023-05-25T20:51:12.384Z,72.46
2023-05-25T20:53:41.450Z,73.11
2023-05-25T20:56:09.160Z,72.56
2023-05-25T20:58:37.867Z,72.43
2023-05-25T21:01:06.018Z,73.12
2023-05-25T21:03:33.832Z,74.19
2023-05-25T21:06:01.646Z,73.67
2023-05-25T21:08:29.465Z,74.76
2023-05-25T21:10:58.494Z,75.11
2023-05-25T21:13:26.220Z,74.40
2023-05-25T21:15:54.039Z,75.26
2023-05-25T21:18:21.760Z,75.77
2023-05-25T21:20:49.430Z,75.81
2023-05-25T21:23:17.143Z,75.93
2023-05-25T21:25:45.330Z,75.74
2023-05-25T21:28:14.676Z,76.01
2023-05-25T21:30:42.373Z,76.26
2023-05-25T21:33:10.138Z,77.87
2023-05-25T21:35:37.884Z,76.78
2023-05-25T21:38:05.563Z,77.29
2023-05-25T21:40:33.321Z,77.80
2023-05-25T21:43:01.157Z,77.86
2023-05-25T21:45:30.167Z,77.79
2023-05-25T21:47:58.124Z,78.35
2023-05-25T21:50:25.865Z,78.09
2023-05-25T21:52:53.570Z,78.73
2023-05-25T21:55:21.264Z,79.16
2023-05-25T21:57:48.925Z,79.40
2023-05-25T22:00:17.715Z,78.82
2023-05-25T22:02:47.086Z,79.61
2023-05-25T22:05:15.630Z,80.34
2023-05-25T22:07:43.333Z,79.18
2023-05-25T22:10:11.650Z,79.51
2023-05-25T22:12:39.488Z,79.84
2023-05-25T22:15:08.253Z,80.27
2023-05-25T22:17:36.029Z,80.58
2023-05-25T22:20:07.770Z,80.16
2023-05-25T22:22:37.229Z,80.88
2023-05-25T22:25:05.433Z,80.65
2023-05-25T22:27:33.773Z,80.71
2023-05-25T22:30:01.535Z,80.74
2023-05-25T22:32:29.269Z,81.37
2023-05-25T22:34:57.660Z,81.65
2023-05-25T22:37:26.696Z,82.07
2023-05-25T22:39:54.454Z,81.79
2023-05-25T22:42:22.294Z,82.09
2023-05-25T22:44:51.178Z,81.86
2023-05-25T22:47:19.072Z,82.14
2023-05-25T22:49:46.879Z,82.61
2023-05-25T22:52:14.746Z,83.24
2023-05-25T22:54:43.938Z,82.77
2023-05-25T22:57:11.775Z,82.98
2023-05-25T22:59:39.565Z,83.14
2023-05-25T23:02:07.563Z,82.95
2023-05-25T23:04:36.619Z,84.47
2023-05-25T23:07:04.500Z,83.92
2023-05-25T23:09:32.209Z,84.89
2023-05-25T23:12:01.667Z,85.51
2023-05-25T23:14:30.982Z,85.31
2023-05-25T23:16:58.729Z,85.33
2023-05-25T23:19:26.401Z,85.24
2023-05-25T23:21:54.564Z,85.75
2023-05-25T23:24:22.324Z,86.03
2023-05-25T23:26:50.666Z,86.05
2023-05-25T23:29:19.780Z,85.48
2023-05-25T23:31:48.127Z,85.51
2023-05-25T23:34:16.029Z,85.28
2023-05-25T23:36:43.863Z,84.91
2023-05-25T23:39:11.606Z,85.11
2023-05-25T23:41:39.573Z,85.16
2023-05-25T23:44:07.301Z,85.60
2023-05-25T23:46:36.478Z,86.35
2023-05-25T23:49:04.334Z,86.47
2023-05-25T23:51:32.778Z,86.38
2023-05-25T23:54:00.551Z,86.24
2023-05-25T23:56:28.451Z,86.97
2023-05-25T23:58:56.853Z,86.31
